createdAt,value
2018-06-03T06:58:26.607Z,19.02
2018-06-03T07:00:55.711Z,19.05
2018-06-03T07:03:24.604Z,19.03
2018-06-03T07:05:53.438Z,18.97
2018-06-03T07:08:26.377Z,18.95
2018-06-03T07:11:01.245Z,19.01
2018-06-03T07:13:31.199Z,19.05
2018-06-03T07:16:00.110Z,19.04
2018-06-03T07:18:29.456Z,19.04
2018-06-03T07:20:58.699Z,19.01
2018-06-03T07:23:27.251Z,19.05
2018-06-03T07:25:58.069Z,19.11
2018-06-03T07:28:26.815Z,19.11
2018-06-03T07:31:00.760Z,18.97
2018-06-03T07:33:30.167Z,19.09
2018-06-03T07:35:59.254Z,19.16
2018-06-03T07:38:28.271Z,19.15
2018-06-03T07:40:56.874Z,19.12
2018-06-03T07:43:25.857Z,19.13
2018-06-03T07:45:55.198Z,19.16
2018-06-03T07:48:24.074Z,19.19
2018-06-03T07:50:52.982Z,19.13
2018-06-03T07:53:21.548Z,19.12
2018-06-03T07:55:51.199Z,19.19
2018-06-03T07:58:20.018Z,19.13
2018-06-03T08:00:49.882Z,19.13
2018-06-03T08:03:18.687Z,19.14
2018-06-03T08:05:47.532Z,19.17
2018-06-03T08:08:16.433Z,19.20
2018-06-03T08:10:45.715Z,19.23
2018-06-03T08:13:14.484Z,19.22
2018-06-03T08:15:43.133Z,19.15
2018-06-03T08:18:11.878Z,19.24
2018-06-03T08:20:40.567Z,19.09
2018-06-03T08:23:09.243Z,19.16
2018-06-03T08:25:38.110Z,19.20
2018-06-03T08:28:06.723Z,19.25
2018-06-03T08:30:35.515Z,19.29
2018-06-03T08:33:04.178Z,19.23
2018-06-03T08:35:33.027Z,19.37
2018-06-03T08:38:01.907Z,19.32
2018-06-03T08:40:30.602Z,19.58
2018-06-03T08:42:59.502Z,19.51
2018-06-03T08:45:28.107Z,19.63
2018-06-03T08:47:57.019Z,19.61
2018-06-03T08:50:25.633Z,19.82
2018-06-03T08:52:54.210Z,19.76
2018-06-03T08:55:23.312Z,19.87
2018-06-03T08:57:52.187Z,19.92
2018-06-03T09:00:21.063Z,19.85
2018-06-03T09:02:50.351Z,19.75
2018-06-03T09:05:19.081Z,19.72
2018-06-03T09:07:47.911Z,19.66
2018-06-03T09:10:16.743Z,19.78
2018-06-03T09:12:45.315Z,19.82
2018-06-03T09:15:14.139Z,19.71
2018-06-03T09:17:43.063Z,19.74
2018-06-03T09:20:11.735Z,19.94
2018-06-03T09:22:40.348Z,19.82
2018-06-03T09:25:09.311Z,19.76
2018-06-03T09:27:38.074Z,19.76
2018-06-03T09:30:06.838Z,19.77
2018-06-03T09:32:35.516Z,19.81
2018-06-03T09:35:04.173Z,19.70
2018-06-03T09:37:32.807Z,19.81
2018-06-03T09:40:01.644Z,19.82
2018-06-03T09:42:30.367Z,19.86
2018-06-03T09:44:59.247Z,19.94
2018-06-03T09:47:27.934Z,19.85
2018-06-03T09:49:56.748Z,19.83
2018-06-03T09:52:25.900Z,20.08
2018-06-03T09:54:55.557Z,20.03
2018-06-03T09:57:25.125Z,20.11
2018-06-03T09:59:55.635Z,20.29
2018-06-03T10:02:27.386Z,20.23
2018-06-03T10:05:03.818Z,20.20
2018-06-03T10:07:32.911Z,20.39
2018-06-03T10:10:03.326Z,20.47
2018-06-03T10:12:33.643Z,20.40
2018-06-03T10:15:03.888Z,20.14
2018-06-03T10:17:32.955Z,20.09
2018-06-03T10:20:03.673Z,19.99
2018-06-03T10:22:33.178Z,20.06
2018-06-03T10:25:03.927Z,19.86
2018-06-03T10:27:35.575Z,19.79
2018-06-03T10:30:06.932Z,19.85
2018-06-03T10:32:37.394Z,19.98
2018-06-03T10:35:08.431Z,20.18
2018-06-03T10:37:37.260Z,20.17
2018-06-03T10:40:06.627Z,20.34
2018-06-03T10:42:36.017Z,20.53
2018-06-03T10:45:05.268Z,20.68
2018-06-03T10:47:34.174Z,21.10
2018-06-03T10:50:03.185Z,21.63
2018-06-03T10:52:40.795Z,21.78
2018-06-03T10:55:16.732Z,22.02
2018-06-03T10:57:47.027Z,21.70
2018-06-03T11:00:18.671Z,21.48
2018-06-03T11:02:47.832Z,21.41
2018-06-03T11:05:16.771Z,21.21
2018-06-03T11:07:45.678Z,21.32
2018-06-03T11:10:15.326Z,21.34
2018-06-03T11:12:44.692Z,21.49
2018-06-03T11:15:14.188Z,21.61
2018-06-03T11:17:42.938Z,22.24
2018-06-03T11:20:12.229Z,22.46
2018-06-03T11:22:41.100Z,22.31
2018-06-03T11:27:55.319Z,22.55
2018-06-03T11:30:27.994Z,23.02
2018-06-03T11:33:01.881Z,23.52
2018-06-03T11:35:31.769Z,23.46
2018-06-03T11:38:00.383Z,23.81
2018-06-03T11:40:29.427Z,24.15
2018-06-03T11:42:58.023Z,23.68
2018-06-03T11:45:26.969Z,23.63
2018-06-03T11:47:55.815Z,23.69
2018-06-03T11:50:24.543Z,23.66
2018-06-03T11:52:53.386Z,23.61
2018-06-03T11:55:22.399Z,24.23
2018-06-03T11:59:06.349Z,24.78
2018-06-03T12:01:35.811Z,25.46
2018-06-03T12:04:04.490Z,25.76
2018-06-03T12:06:33.447Z,24.83
2018-06-03T12:09:02.685Z,24.38
2018-06-03T12:11:31.338Z,24.26
2018-06-03T12:14:00.019Z,24.72
2018-06-03T12:16:29.131Z,24.65
2018-06-03T12:18:58.065Z,24.08
2018-06-03T12:21:27.801Z,24.23
2018-06-03T12:23:57.031Z,23.67
2018-06-03T12:26:25.795Z,23.78
2018-06-03T12:28:54.788Z,24.02
2018-06-03T12:31:23.543Z,24.64
2018-06-03T12:33:52.579Z,24.77
2018-06-03T12:36:21.316Z,25.17
2018-06-03T12:38:50.045Z,24.77
2018-06-03T12:41:18.667Z,24.48
2018-06-03T12:43:47.451Z,23.53
2018-06-03T12:46:16.238Z,22.84
2018-06-03T12:48:45.631Z,23.00
2018-06-03T12:51:14.723Z,24.72
2018-06-03T12:53:43.388Z,26.31
2018-06-03T12:56:12.374Z,25.17
2018-06-03T12:58:40.992Z,24.83
2018-06-03T13:01:10.019Z,24.39
2018-06-03T13:03:38.975Z,25.79
2018-06-03T13:06:08.604Z,26.33
2018-06-03T13:08:37.487Z,27.01
2018-06-03T13:11:06.454Z,26.18
2018-06-03T13:13:35.096Z,26.19
2018-06-03T13:16:04.155Z,26.71
2018-06-03T13:18:32.775Z,26.56
2018-06-03T13:21:01.606Z,25.38
2018-06-03T13:23:30.292Z,25.49
2018-06-03T13:26:00.026Z,25.79
2018-06-03T13:28:28.752Z,28.90
2018-06-03T13:30:57.601Z,29.23
2018-06-03T13:33:26.315Z,29.10
2018-06-03T13:35:55.051Z,27.12
2018-06-03T13:38:24.156Z,25.64
2018-06-03T13:40:52.842Z,27.98
2018-06-03T13:43:21.483Z,29.91
2018-06-03T13:45:50.402Z,29.00
2018-06-03T13:48:19.118Z,30.46
2018-06-03T13:50:47.894Z,30.24
2018-06-03T13:53:17.009Z,27.79
2018-06-03T13:55:45.752Z,27.26
2018-06-03T13:58:14.502Z,26.91
2018-06-03T14:00:43.518Z,28.98
2018-06-03T14:03:12.492Z,30.09
2018-06-03T14:05:41.536Z,29.25
2018-06-03T14:08:10.307Z,28.25
2018-06-03T14:10:39.548Z,26.95
2018-06-03T14:13:08.561Z,27.51
2018-06-03T14:15:38.315Z,26.13
2018-06-03T14:18:07.382Z,26.35
2018-06-03T14:20:36.812Z,25.94
2018-06-03T14:23:05.653Z,26.12
2018-06-03T14:25:34.489Z,25.60
2018-06-03T14:28:03.230Z,26.53
2018-06-03T14:30:32.344Z,27.50
2018-06-03T14:33:01.913Z,25.99
2018-06-03T14:35:31.076Z,25.51
2018-06-03T14:38:00.344Z,25.28
2018-06-03T14:40:31.827Z,25.64
2018-06-03T14:43:00.626Z,26.05
2018-06-03T14:45:29.790Z,25.92
2018-06-03T14:47:58.545Z,26.40
2018-06-03T14:50:27.430Z,26.39
2018-06-03T14:52:56.293Z,26.87
2018-06-03T14:55:25.196Z,26.79
2018-06-03T14:57:54.147Z,26.40
2018-06-03T15:00:23.126Z,26.13
2018-06-03T15:02:51.823Z,25.94
2018-06-03T15:05:20.865Z,25.48
2018-06-03T15:07:50.848Z,25.92
2018-06-03T15:10:20.041Z,25.90
2018-06-03T15:12:48.649Z,25.66
2018-06-03T15:15:17.579Z,25.80
2018-06-03T15:17:46.315Z,26.01
2018-06-03T15:20:15.199Z,25.24
2018-06-03T15:22:43.785Z,25.25
2018-06-03T15:25:13.133Z,25.47
2018-06-03T15:27:42.970Z,25.34
2018-06-03T15:30:11.822Z,26.02
2018-06-03T15:32:40.517Z,26.60
2018-06-03T15:35:09.499Z,26.00
2018-06-03T15:37:38.389Z,26.95
2018-06-03T15:40:07.565Z,27.62
2018-06-03T15:42:36.270Z,27.44
2018-06-03T15:45:05.318Z,26.76
2018-06-03T15:47:33.977Z,26.86
2018-06-03T15:50:03.203Z,27.24
2018-06-03T15:52:32.195Z,27.21
2018-06-03T15:55:02.080Z,26.88
2018-06-03T15:57:31.320Z,26.10
2018-06-03T16:00:00.161Z,26.17
2018-06-03T16:02:29.264Z,27.62
2018-06-03T16:05:06.601Z,27.09
2018-06-03T16:07:35.335Z,28.79
2018-06-03T16:10:04.431Z,27.23
2018-06-03T16:12:33.180Z,27.42
2018-06-03T16:15:01.735Z,26.49
2018-06-03T16:17:30.681Z,25.48
2018-06-03T16:19:59.276Z,26.14
2018-06-03T16:22:28.454Z,25.67
2018-06-03T16:24:58.911Z,25.93
2018-06-03T16:27:28.104Z,26.82
2018-06-03T16:29:56.778Z,28.52
2018-06-03T16:32:25.527Z,28.49
2018-06-03T16:34:54.329Z,27.21
2018-06-03T16:37:23.131Z,26.27
2018-06-03T16:39:52.335Z,25.81
2018-06-03T16:42:21.372Z,25.23
2018-06-03T16:44:51.088Z,25.51
2018-06-03T16:47:19.843Z,25.21
2018-06-03T16:49:48.545Z,25.12
2018-06-03T16:52:17.184Z,24.92
2018-06-03T16:54:46.261Z,24.84
2018-06-03T16:57:15.456Z,24.53
2018-06-03T16:59:44.275Z,24.55
2018-06-03T17:02:13.948Z,24.53
2018-06-03T17:04:42.974Z,24.30
2018-06-03T17:07:11.750Z,24.22
2018-06-03T17:09:40.551Z,24.06
2018-06-03T17:12:09.770Z,23.94
2018-06-03T17:14:38.739Z,23.87
2018-06-03T17:17:07.664Z,23.98
2018-06-03T17:19:36.456Z,23.81
2018-06-03T17:22:05.304Z,23.70
2018-06-03T17:24:34.541Z,23.76
2018-06-03T17:27:03.153Z,23.69
2018-06-03T17:29:31.970Z,23.49
2018-06-03T17:32:00.810Z,23.50
2018-06-03T17:34:29.667Z,23.62
2018-06-03T17:36:58.345Z,23.28
2018-06-03T17:39:27.142Z,23.34
2018-06-03T17:41:56.536Z,23.27
2018-06-03T17:44:25.434Z,23.19
2018-06-03T17:46:54.062Z,23.20
2018-06-03T17:49:23.277Z,22.99
2018-06-03T17:51:53.763Z,23.04
2018-06-03T17:54:23.163Z,23.09
2018-06-03T17:56:52.226Z,22.93
2018-06-03T17:59:21.117Z,22.85
2018-06-03T18:01:51.308Z,22.86
2018-06-03T18:04:20.270Z,22.76
2018-06-03T18:06:49.040Z,22.56
2018-06-03T18:09:17.815Z,22.64
2018-06-03T18:11:46.495Z,22.50
2018-06-03T18:14:15.541Z,22.38
2018-06-03T18:16:44.586Z,22.33
2018-06-03T18:19:13.272Z,22.41
2018-06-03T18:21:42.366Z,22.33
2018-06-03T18:24:11.407Z,22.25
2018-06-03T18:26:41.515Z,22.20
2018-06-03T18:29:10.414Z,22.15
2018-06-03T18:31:39.356Z,22.09
2018-06-03T18:34:08.605Z,21.98
2018-06-03T18:36:37.581Z,21.95
2018-06-03T18:39:08.607Z,21.91
2018-06-03T18:41:37.597Z,21.85
2018-06-03T18:44:06.863Z,21.70
2018-06-03T18:46:35.984Z,21.67
2018-06-03T18:49:05.007Z,21.65
2018-06-03T18:51:33.652Z,21.49
2018-06-03T18:54:02.567Z,21.44
2018-06-03T18:56:32.136Z,21.35
2018-06-03T18:59:01.047Z,21.26
2018-06-03T19:01:30.019Z,21.16
2018-06-03T19:03:59.123Z,21.16
2018-06-03T19:06:28.665Z,21.01
2018-06-03T19:08:57.552Z,20.95
2018-06-03T19:11:27.472Z,20.86
2018-06-03T19:13:56.668Z,20.82
2018-06-03T19:16:25.664Z,20.78
2018-06-03T19:18:54.742Z,20.70
2018-06-03T19:21:23.901Z,20.63
2018-06-03T19:23:52.799Z,20.53
2018-06-03T19:26:21.789Z,20.47
2018-06-03T19:28:50.806Z,20.43
2018-06-03T19:31:21.468Z,20.35
2018-06-03T19:33:50.783Z,20.31
2018-06-03T19:36:19.753Z,20.28
2018-06-03T19:38:48.859Z,20.24
2018-06-03T19:41:18.396Z,20.13
2018-06-03T19:43:47.491Z,20.05
2018-06-03T19:46:16.386Z,19.97
2018-06-03T19:48:45.141Z,19.88
2018-06-03T19:51:14.096Z,19.83
2018-06-03T19:53:42.950Z,19.87
2018-06-03T19:56:12.025Z,19.88
2018-06-03T19:58:41.175Z,19.74
2018-06-03T20:01:09.911Z,19.65
2018-06-03T20:03:39.373Z,19.61
2018-06-03T20:06:08.872Z,19.62
2018-06-03T20:08:38.205Z,19.49
2018-06-03T20:11:07.030Z,19.52
2018-06-03T20:13:36.486Z,19.40
2018-06-03T20:16:06.463Z,19.38
2018-06-03T20:18:36.115Z,19.34
2018-06-03T20:21:05.723Z,19.32
2018-06-03T20:23:35.227Z,19.28
2018-06-03T20:26:04.727Z,19.24
2018-06-03T20:28:33.920Z,19.17
2018-06-03T20:31:02.747Z,19.12
2018-06-03T20:33:32.188Z,19.10
2018-06-03T20:36:01.661Z,19.04
2018-06-03T20:38:30.758Z,18.99
2018-06-03T20:40:59.886Z,19.04
2018-06-03T20:43:28.851Z,18.97
2018-06-03T20:45:57.734Z,18.92
2018-06-03T20:48:28.071Z,18.86
2018-06-03T20:50:57.609Z,18.78
2018-06-03T20:53:27.119Z,18.78
2018-06-03T20:55:56.901Z,18.69
2018-06-03T20:58:25.559Z,18.69
2018-06-03T21:00:54.948Z,18.64
2018-06-03T21:03:24.930Z,18.64
2018-06-03T21:05:57.834Z,18.61
2018-06-03T21:08:26.665Z,18.59
2018-06-03T21:10:55.751Z,18.55
2018-06-03T21:13:25.174Z,18.52
2018-06-03T21:15:54.266Z,18.43
2018-06-03T21:18:23.155Z,18.42
2018-06-03T21:20:53.387Z,18.41
2018-06-03T21:23:22.710Z,18.36
2018-06-03T21:25:51.858Z,18.31
2018-06-03T21:28:21.407Z,18.29
2018-06-03T21:30:50.460Z,18.24
2018-06-03T21:33:20.192Z,18.17
2018-06-03T21:35:49.732Z,18.11
2018-06-03T21:38:18.997Z,18.15
2018-06-03T21:40:47.966Z,18.17
2018-06-03T21:43:20.116Z,18.17
2018-06-03T21:45:49.511Z,18.14
2018-06-03T21:48:18.914Z,18.09
2018-06-03T21:50:47.998Z,18.04
2018-06-03T21:53:17.058Z,18.01
2018-06-03T21:55:46.378Z,18.01
2018-06-03T21:58:15.459Z,18.05
2018-06-03T22:00:44.117Z,17.96
2018-06-03T22:03:13.203Z,17.92
2018-06-03T22:05:42.183Z,17.93
2018-06-03T22:08:11.110Z,17.88
2018-06-03T22:10:40.685Z,17.87
2018-06-03T22:13:09.887Z,17.85
2018-06-03T22:15:38.733Z,17.89
2018-06-03T22:18:07.909Z,17.81
2018-06-03T22:20:37.812Z,17.75
2018-06-03T22:23:07.204Z,17.74
2018-06-03T22:25:36.297Z,17.69
2018-06-03T22:28:05.469Z,17.69
2018-06-03T22:30:34.213Z,17.70
2018-06-03T22:33:02.929Z,17.65
2018-06-03T22:35:31.668Z,17.70
2018-06-03T22:38:00.877Z,17.73
2018-06-03T22:40:30.060Z,17.67
2018-06-03T22:43:00.424Z,17.65
2018-06-03T22:45:29.466Z,17.61
2018-06-03T22:47:59.044Z,17.61
2018-06-03T22:50:27.935Z,17.63
2018-06-03T22:52:57.114Z,17.54
2018-06-03T22:55:26.442Z,17.56
2018-06-03T22:57:56.270Z,17.54
2018-06-03T23:00:30.528Z,17.51
2018-06-03T23:03:04.587Z,17.47
2018-06-03T23:05:33.390Z,17.44
2018-06-03T23:08:02.468Z,17.48
2018-06-03T23:10:31.314Z,17.44
2018-06-03T23:13:00.264Z,17.43
2018-06-03T23:15:29.246Z,17.40
2018-06-03T23:17:58.770Z,17.33
2018-06-03T23:20:27.826Z,17.23
2018-06-03T23:22:56.787Z,17.24
2018-06-03T23:25:26.104Z,17.32
2018-06-03T23:27:54.882Z,17.32
2018-06-03T23:30:24.004Z,17.30
2018-06-03T23:32:52.699Z,17.31
2018-06-03T23:35:21.792Z,17.29
2018-06-03T23:37:50.952Z,17.25
2018-06-03T23:40:20.032Z,17.27
2018-06-03T23:42:49.386Z,17.22
2018-06-03T23:45:17.990Z,17.20
2018-06-03T23:47:46.841Z,17.17
2018-06-03T23:50:15.634Z,17.15
2018-06-03T23:52:44.783Z,17.12
2018-06-03T23:55:14.032Z,17.11
2018-06-03T23:57:43.154Z,17.13
